Time;durP1;ratioP1;P1;durP2;ratioP2;P2;SDS_P1;SDS_P2;PMS_P1;PMS_P2;Temp;Humidity;BMP_temperature;BMP_pressure;BME280_temperature;BME280_humidity;BME280_pressure;Samples;Min_cycle;Max_cycle;Signal;HPM_P1;HPM_P2
2022/12/28 00:03:13;;;;;;;23.17;11.33;;;;;;;0.81;100.00;101242.89;3458725;84;98954;-86
2022/12/28 00:08:14;;;;;;;21.43;11.40;;;;;;;0.78;100.00;101241.58;3428799;84;25907;-86
2022/12/28 00:13:15;;;;;;;22.53;10.57;;;;;;;0.77;100.00;101237.83;3429130;84;99137;-86
2022/12/28 00:18:16;;;;;;;25.00;9.83;;;;;;;0.72;100.00;101237.33;3493433;84;25880;-85
2022/12/28 00:23:17;;;;;;;28.00;12.00;;;;;;;0.70;100.00;101234.11;3478637;83;98699;-83
2022/12/28 00:28:18;;;;;;;23.53;10.73;;;;;;;0.69;100.00;101223.56;3492281;83;34513;-84
2022/12/28 00:33:19;;;;;;;20.77;9.77;;;;;;;0.70;100.00;101217.05;3447624;83;98982;-84
2022/12/28 00:38:19;;;;;;;23.20;9.97;;;;;;;0.70;100.00;101213.80;3402513;85;33735;-85
2022/12/28 00:43:20;;;;;;;23.90;12.07;;;;;;;0.68;100.00;101207.88;3475682;81;98708;-86
2022/12/28 00:48:21;;;;;;;23.67;10.97;;;;;;;0.66;100.00;101208.70;3550785;82;34528;-86
2022/12/28 00:53:22;;;;;;;22.40;10.93;;;;;;;0.63;100.00;101206.59;3542907;82;98793;-86
2022/12/28 00:58:23;;;;;;;27.10;10.50;;;;;;;0.61;100.00;101204.70;3548989;82;32902;-84
2022/12/28 01:03:23;;;;;;;28.35;11.97;;;;;;;0.60;100.00;101198.25;3544081;82;98879;-86
2022/12/28 01:08:24;;;;;;;20.67;10.80;;;;;;;0.58;100.00;101197.18;3552449;82;32863;-86
2022/12/28 01:13:25;;;;;;;27.30;11.83;;;;;;;0.57;100.00;101208.30;3544214;82;99129;-87
2022/12/28 01:18:26;;;;;;;24.83;10.43;;;;;;;0.56;100.00;101197.22;3550735;82;32299;-84
2022/12/28 01:23:27;;;;;;;26.00;10.73;;;;;;;0.54;100.00;101187.20;3542246;82;99005;-86
2022/12/28 01:28:28;;;;;;;24.90;10.07;;;;;;;0.52;100.00;101173.16;3502103;83;31661;-86
2022/12/28 01:33:34;;;;;;;21.03;9.87;;;;;;;0.50;100.00;101168.03;3540861;82;99229;-85
2022/12/28 01:38:35;;;;;;;23.77;9.48;;;;;;;0.48;100.00;101147.22;3577409;81;25925;-86
2022/12/28 01:43:57;;;;;;;24.23;9.30;;;;;;;0.47;100.00;101153.73;3566288;81;98818;-86
2022/12/28 01:49:06;;;;;;;18.70;8.50;;;;;;;0.47;100.00;101154.27;3563078;81;26604;-85
2022/12/28 01:54:07;;;;;;;21.02;8.65;;;;;;;0.47;100.00;101163.22;3560215;80;99043;-86
2022/12/28 01:59:08;;;;;;;17.70;7.90;;;;;;;0.47;100.00;101165.92;3546854;81;32337;-86
2022/12/28 02:04:09;;;;;;;19.57;8.73;;;;;;;0.47;100.00;101156.45;3563486;81;98761;-86
2022/12/28 02:09:16;;;;;;;16.00;8.07;;;;;;;0.47;100.00;101154.27;3569748;81;32281;-87
2022/12/28 02:14:18;;;;;;;20.37;8.67;;;;;;;0.47;100.00;101154.27;3557185;81;98783;-87
2022/12/28 02:19:28;;;;;;;22.87;8.47;;;;;;;0.48;100.00;101143.69;3567674;81;26055;-87
2022/12/28 02:25:03;;;;;;;19.20;7.92;;;;;;;0.51;100.00;101126.30;3546055;81;98308;-86
2022/12/28 02:30:10;;;;;;;16.83;7.03;;;;;;;0.53;100.00;101107.06;3565445;81;25954;-87
2022/12/28 02:35:38;;;;;;;17.60;7.83;;;;;;;0.55;100.00;101117.07;3562489;81;98485;-87
2022/12/28 02:40:49;;;;;;;16.80;7.53;;;;;;;0.55;100.00;101109.73;3566306;81;25903;-86
2022/12/28 02:51:54;;;;;;;21.30;8.77;;;;;;;0.58;100.00;101085.32;3568564;81;98815;-86
2022/12/28 02:57:09;;;;;;;26.17;11.73;;;;;;;0.59;100.00;101090.98;3576921;81;26554;-84
2022/12/28 03:02:21;;;;;;;15.70;6.40;;;;;;;0.59;100.00;101074.73;3566539;80;98957;-86
2022/12/28 03:34:44;;;;;;;18.07;5.67;;;;;;;0.62;100.00;101049.22;3567675;81;98383;-85
2022/12/28 03:39:54;;;;;;;12.83;5.50;;;;;;;0.63;100.00;101030.53;3579484;81;32213;-85
2022/12/28 03:45:09;;;;;;;11.03;4.97;;;;;;;0.65;100.00;101025.61;3571015;80;98353;-85
2022/12/28 03:50:11;;;;;;;14.07;5.80;;;;;;;0.66;100.00;101023.16;3575181;81;25908;-86
2022/12/28 03:55:15;;;;;;;15.65;5.65;;;;;;;0.69;100.00;101017.16;3574277;81;98734;-86
2022/12/28 04:00:17;;;;;;;13.33;5.73;;;;;;;0.73;100.00;101007.31;3577366;81;25941;-85
2022/12/28 04:05:17;;;;;;;14.27;6.07;;;;;;;0.78;100.00;101001.02;3573742;80;98352;-85
2022/12/28 04:10:18;;;;;;;17.10;5.97;;;;;;;0.84;100.00;100990.34;3577594;81;32790;-86
2022/12/28 04:15:19;;;;;;;17.37;5.73;;;;;;;0.90;100.00;100979.66;3570828;81;98718;-86
2022/12/28 04:20:20;;;;;;;17.93;5.60;;;;;;;1.01;100.00;100972.94;3574405;81;31533;-85
2022/12/28 04:25:21;;;;;;;16.53;5.70;;;;;;;1.11;100.00;100951.06;3567028;81;98649;-86
2022/12/28 04:30:22;;;;;;;14.17;5.33;;;;;;;1.19;100.00;100943.56;3576168;81;30539;-83
2022/12/28 04:35:22;;;;;;;12.97;5.47;;;;;;;1.28;100.00;100936.34;3574529;81;98876;-85
2022/12/28 04:40:23;;;;;;;13.93;5.87;;;;;;;1.35;100.00;100921.81;3581153;81;26701;-85
2022/12/28 04:45:24;;;;;;;14.50;5.17;;;;;;;1.39;100.00;100905.19;3565445;81;98366;-83
2022/12/28 04:50:26;;;;;;;18.37;5.93;;;;;;;1.46;100.00;100905.03;3567754;81;35497;-85
2022/12/28 04:55:27;;;;;;;13.53;5.63;;;;;;;1.52;100.00;100916.55;3561314;81;98291;-86
2022/12/28 05:00:27;;;;;;;17.80;8.03;;;;;;;1.55;100.00;100926.27;3567770;81;35596;-85
2022/12/28 05:05:29;;;;;;;12.60;5.47;;;;;;;1.57;100.00;100909.12;3564527;81;98636;-85
2022/12/28 05:10:30;;;;;;;14.50;7.13;;;;;;;1.58;100.00;100900.44;3566301;81;35560;-85
2022/12/28 05:15:31;;;;;;;15.17;6.07;;;;;;;1.59;100.00;100899.33;3563069;81;98620;-87
2022/12/28 05:20:32;;;;;;;12.03;5.70;;;;;;;1.57;100.00;100894.20;3566921;81;35448;-86
2022/12/28 05:25:33;;;;;;;14.27;6.87;;;;;;;1.52;100.00;100878.03;3560584;81;98772;-86
2022/12/28 05:30:33;;;;;;;18.20;6.27;;;;;;;1.54;100.00;100879.88;3570497;81;35498;-86
2022/12/28 05:35:34;;;;;;;14.30;6.33;;;;;;;1.50;100.00;100869.42;3560760;81;98682;-86
2022/12/28 05:40:35;;;;;;;13.90;6.20;;;;;;;1.51;100.00;100866.95;3567313;81;35591;-86
2022/12/28 05:45:36;;;;;;;15.37;6.10;;;;;;;1.50;100.00;100856.39;3561653;81;98392;-86
2022/12/28 05:50:37;;;;;;;13.13;6.40;;;;;;;1.48;100.00;100845.84;3568089;81;32483;-86
2022/12/28 05:55:37;;;;;;;16.07;5.90;;;;;;;1.46;100.00;100835.88;3559859;81;98862;-86
2022/12/28 06:00:38;;;;;;;16.03;6.13;;;;;;;1.45;100.00;100829.39;3566953;81;32468;-86
2022/12/28 06:05:39;;;;;;;14.58;6.60;;;;;;;1.45;100.00;100832.10;3558789;81;98550;-86
2022/12/28 06:10:40;;;;;;;17.73;6.40;;;;;;;1.44;100.00;100824.54;3565533;81;32431;-85
2022/12/28 06:15:41;;;;;;;14.53;6.13;;;;;;;1.44;100.00;100825.08;3560377;81;98718;-86
2022/12/28 06:20:41;;;;;;;17.10;7.12;;;;;;;1.43;100.00;100821.55;3563025;81;32469;-86
2022/12/28 06:25:42;;;;;;;15.83;6.40;;;;;;;1.44;100.00;100808.27;3559407;81;98347;-85
2022/12/28 06:30:43;;;;;;;14.97;6.40;;;;;;;1.51;100.00;100801.04;3570365;81;26356;-85
2022/12/28 06:35:44;;;;;;;17.77;6.77;;;;;;;1.55;100.00;100798.78;3553693;81;98482;-87
2022/12/28 06:40:45;;;;;;;20.73;7.00;;;;;;;1.63;100.00;100797.21;3566593;81;26475;-86
2022/12/28 06:45:56;;;;;;;18.60;7.40;;;;;;;1.69;100.00;100794.64;3560347;81;98684;-86
2022/12/28 06:50:59;;;;;;;15.27;6.63;;;;;;;1.75;100.00;100786.63;3565404;81;27627;-86
2022/12/28 06:56:04;;;;;;;21.10;8.27;;;;;;;1.81;100.00;100786.16;3564707;81;27464;-85
2022/12/28 07:01:21;;;;;;;24.80;9.00;;;;;;;1.87;100.00;100780.85;3561274;81;98875;-87
2022/12/28 07:06:29;;;;;;;16.37;6.53;;;;;;;1.95;100.00;100771.16;3568122;81;29301;-87
2022/12/28 07:11:30;;;;;;;15.43;5.77;;;;;;;1.99;100.00;100777.58;3557489;81;98532;-88
2022/12/28 07:16:31;;;;;;;12.93;5.63;;;;;;;2.05;100.00;100770.34;3562963;81;26845;-87
2022/12/28 07:21:36;;;;;;;13.15;6.12;;;;;;;2.10;100.00;100768.86;3555394;81;98798;-87
2022/12/28 07:26:37;;;;;;;19.57;6.50;;;;;;;2.15;100.00;100765.20;3566314;81;29228;-87
2022/12/28 07:31:39;;;;;;;15.00;6.97;;;;;;;2.17;100.00;100760.24;3554740;81;98677;-86
2022/12/28 07:36:40;;;;;;;13.07;6.67;;;;;;;2.18;100.00;100755.86;3557919;81;30225;-85
2022/12/28 07:41:41;;;;;;;14.67;6.17;;;;;;;2.20;100.00;100750.91;3557900;81;98886;-86
2022/12/28 07:46:42;;;;;;;19.70;7.00;;;;;;;2.22;100.00;100754.67;3572656;81;26091;-87
2022/12/28 07:51:42;;;;;;;17.30;7.17;;;;;;;2.23;100.00;100740.80;3565141;80;98890;-85
2022/12/28 07:56:43;;;;;;;16.43;6.20;;;;;;;2.26;100.00;100739.37;3580936;80;26143;-87
2022/12/28 08:01:44;;;;;;;14.63;6.40;;;;;;;2.28;100.00;100733.86;3565281;81;98650;-87
2022/12/28 08:06:45;;;;;;;14.50;6.40;;;;;;;2.31;100.00;100740.04;3566003;80;25933;-85
2022/12/28 08:11:48;;;;;;;15.80;6.70;;;;;;;2.36;100.00;100738.51;3568285;80;98804;-85
2022/12/28 08:16:49;;;;;;;15.60;6.77;;;;;;;2.40;100.00;100727.27;3576663;81;25861;-85
2022/12/28 08:21:50;;;;;;;20.32;6.05;;;;;;;2.45;100.00;100729.03;3569337;80;98904;-85
2022/12/28 08:26:51;;;;;;;14.23;6.50;;;;;;;2.48;100.00;100712.11;3574076;81;26084;-85
2022/12/28 08:31:51;;;;;;;15.47;7.00;;;;;;;2.51;100.00;100704.13;3566188;81;98764;-85
2022/12/28 08:36:54;;;;;;;15.83;6.57;;;;;;;2.56;100.00;100706.69;3570766;81;33223;-85
2022/12/28 08:41:56;;;;;;;17.30;6.90;;;;;;;2.59;100.00;100700.64;3568762;81;98501;-85
2022/12/28 08:46:57;;;;;;;17.27;8.30;;;;;;;2.65;100.00;100699.91;3565573;81;26519;-85
2022/12/28 08:51:58;;;;;;;14.70;6.87;;;;;;;2.68;100.00;100689.78;3558322;81;98905;-85
2022/12/28 08:56:58;;;;;;;21.77;8.03;;;;;;;2.74;100.00;100684.42;3562361;81;33181;-83
2022/12/28 09:01:59;;;;;;;15.17;5.87;;;;;;;2.77;100.00;100682.41;3560557;81;98671;-84
2022/12/28 09:07:00;;;;;;;13.13;6.67;;;;;;;2.81;100.00;100670.61;3567158;80;33228;-85
2022/12/28 09:12:01;;;;;;;16.97;8.10;;;;;;;2.86;100.00;100666.92;3555602;81;99017;-86
2022/12/28 09:17:02;;;;;;;14.40;6.47;;;;;;;2.91;100.00;100658.61;3562142;81;32266;-85
2022/12/28 09:22:03;;;;;;;18.17;8.03;;;;;;;2.95;100.00;100650.84;3556536;81;98810;-86
2022/12/28 09:27:04;;;;;;;17.43;7.87;;;;;;;3.02;100.00;100649.01;3563746;81;31410;-86
2022/12/28 09:32:05;;;;;;;15.33;6.57;;;;;;;3.08;100.00;100640.37;3554999;81;98784;-86
2022/12/28 09:37:07;;;;;;;16.00;7.23;;;;;;;3.19;100.00;100629.40;3559160;81;31789;-87
2022/12/28 09:42:20;;;;;;;16.32;7.12;;;;;;;3.28;100.00;100626.66;3547809;81;98894;-89
2022/12/28 09:47:50;;;;;;;15.33;6.90;;;;;;;3.38;100.00;100619.52;3559735;81;25983;-86
2022/12/28 09:52:57;;;;;;;17.07;7.00;;;;;;;3.48;100.00;100601.45;3526417;81;98721;-87
2022/12/28 09:57:59;;;;;;;16.97;8.30;;;;;;;3.57;100.00;100597.60;3564677;81;26336;-89
2022/12/28 10:03:04;;;;;;;15.90;6.55;;;;;;;3.67;100.00;100593.71;3563976;80;98755;-88
2022/12/28 10:08:08;;;;;;;16.45;6.92;;;;;;;3.76;100.00;100582.23;3580929;81;25905;-90
2022/12/28 10:13:22;;;;;;;18.17;7.35;;;;;;;3.85;100.00;100574.25;3573981;80;98882;-84
2022/12/28 10:18:27;;;;;;;17.40;6.55;;;;;;;3.91;100.00;100572.13;3576696;81;32468;-86
2022/12/28 10:23:31;;;;;;;17.33;7.80;;;;;;;3.99;100.00;100565.84;3571563;81;98630;-87
2022/12/28 10:28:49;;;;;;;16.30;7.70;;;;;;;4.05;100.00;100554.98;3570976;81;26455;-87
2022/12/28 10:33:54;;;;;;;16.00;7.43;;;;;;;4.11;100.00;100558.56;3566461;81;98817;-85
2022/12/28 10:38:55;;;;;;;16.60;6.80;;;;;;;4.20;100.00;100550.33;3573013;81;26477;-87
2022/12/28 10:43:58;;;;;;;13.83;6.33;;;;;;;4.29;100.00;100531.97;3579816;80;98939;-88
2022/12/28 10:49:02;;;;;;;17.40;7.17;;;;;;;4.37;100.00;100521.59;3560609;81;33053;-86
2022/12/28 10:54:08;;;;;;;17.33;8.40;;;;;;;4.45;100.00;100514.70;3484096;83;98911;-87
2022/12/28 10:59:21;;;;;;;20.82;8.68;;;;;;;4.55;100.00;100502.58;3525322;82;25856;-86
2022/12/28 11:04:24;;;;;;;19.80;6.72;;;;;;;4.63;100.00;100487.50;3526637;81;98267;-88
2022/12/28 11:09:32;;;;;;;16.50;7.17;;;;;;;4.73;99.66;100467.19;3523302;82;25948;-88
2022/12/28 11:14:36;;;;;;;18.73;7.23;;;;;;;4.82;99.69;100461.09;3524826;82;99026;-88
2022/12/28 11:19:37;;;;;;;16.97;7.97;;;;;;;4.93;98.99;100452.70;3535714;82;27536;-87
2022/12/28 11:24:39;;;;;;;21.90;9.73;;;;;;;5.03;99.25;100462.59;3527987;82;98215;-84
2022/12/28 11:29:45;;;;;;;17.10;8.43;;;;;;;5.12;98.81;100446.16;3534867;82;26080;-85
2022/12/28 11:34:48;;;;;;;19.20;7.03;;;;;;;5.20;98.81;100444.67;3530290;82;98141;-87
2022/12/28 11:39:51;;;;;;;16.83;6.93;;;;;;;5.32;98.32;100437.05;3529946;82;27557;-85
2022/12/28 11:44:53;;;;;;;15.78;6.83;;;;;;;5.41;97.69;100429.55;3508055;82;98341;-86
2022/12/28 11:49:53;;;;;;;15.60;6.60;;;;;;;5.46;98.00;100427.36;3529455;82;31778;-89
2022/12/28 11:55:02;;;;;;;15.97;5.83;;;;;;;5.53;97.39;100412.59;3535327;80;98175;-88
2022/12/28 12:00:26;;;;;;;15.23;5.93;;;;;;;5.60;97.89;100414.16;3526028;82;25839;-88
2022/12/28 12:05:41;;;;;;;12.13;5.97;;;;;;;5.66;97.71;100403.23;3530572;82;98478;-88
2022/12/28 12:10:46;;;;;;;16.33;6.77;;;;;;;5.71;97.18;100391.27;3527061;82;29059;-89
2022/12/28 12:15:49;;;;;;;16.10;6.70;;;;;;;5.75;96.92;100379.33;3517017;82;98578;-92
2022/12/28 12:21:06;;;;;;;18.70;6.60;;;;;;;5.81;96.83;100373.06;3548815;81;28560;-95
2022/12/28 12:26:36;;;;;;;15.40;6.87;;;;;;;5.85;96.79;100376.11;3547375;81;33427;-90
2022/12/28 12:31:49;;;;;;;16.47;6.83;;;;;;;5.93;97.10;100356.07;3552249;81;98826;-89
2022/12/28 12:37:01;;;;;;;12.10;5.57;;;;;;;6.02;96.66;100358.09;3551389;81;26531;-88
2022/12/28 12:42:31;;;;;;;16.25;6.25;;;;;;;6.06;96.51;100347.26;3564371;80;98654;-90
2022/12/28 12:48:00;;;;;;;13.83;5.67;;;;;;;6.08;96.24;100347.13;3556586;82;29477;-91
2022/12/28 12:53:06;;;;;;;14.63;6.17;;;;;;;6.13;96.08;100350.98;3540206;82;98494;-88
2022/12/28 12:58:17;;;;;;;;;;;;;;;6.20;96.30;100342.16;3550088;82;25910;-89
2022/12/28 13:03:29;;;;;;;20.77;8.77;;;;;;;6.23;95.97;100325.86;3542876;82;84463;-90
2022/12/28 13:08:38;;;;;;;17.83;7.30;;;;;;;6.27;96.41;100324.61;3548770;82;26482;-89
2022/12/28 13:14:19;;;;;;;16.57;8.05;;;;;;;6.29;96.38;100313.55;3536822;82;98315;-91
2022/12/28 13:19:12;;;;;;;14.73;7.43;;;;;;;6.30;96.35;100321.16;3533567;82;29982;-87
2022/12/28 13:24:27;;;;;;;12.33;5.85;;;;;;;6.30;96.18;100312.40;3539004;82;98800;-93
2022/12/28 13:29:37;;;;;;;16.02;6.90;;;;;;;6.31;96.20;100313.17;3546118;82;31482;-90
2022/12/28 13:34:38;;;;;;;23.03;7.70;;;;;;;6.33;96.17;100315.78;3542789;82;98327;-91
2022/12/28 13:39:39;;;;;;;24.30;8.40;;;;;;;6.35;96.21;100314.07;3546260;82;26114;-90
2022/12/28 13:44:57;;;;;;;28.20;9.70;;;;;;;6.37;96.18;100309.03;3536962;82;98414;-93
2022/12/28 13:50:18;;;;;;;29.63;12.17;;;;;;;6.38;96.21;100307.33;3543740;82;29066;-94
2022/12/28 13:55:27;;;;;;;21.20;9.70;;;;;;;6.39;96.55;100306.77;3542032;82;98288;-88
2022/12/28 14:00:31;;;;;;;22.73;8.90;;;;;;;6.38;96.92;100310.65;3547421;82;25887;-90
2022/12/28 14:05:34;;;;;;;22.73;9.95;;;;;;;6.33;97.17;100300.75;3542758;82;98185;-89
2022/12/28 14:10:36;;;;;;;31.67;10.77;;;;;;;6.31;97.62;100292.67;3545292;82;25878;-91
2022/12/28 14:15:41;;;;;;;29.20;12.30;;;;;;;6.31;98.00;100286.66;3545961;82;98267;-96
2022/12/28 14:20:52;;;;;;;17.33;8.73;;;;;;;6.28;98.35;100281.88;3493973;82;25834;-95
2022/12/28 14:26:01;;;;;;;19.37;9.13;;;;;;;6.32;98.71;100286.87;3544163;82;97942;-92
2022/12/28 14:31:05;;;;;;;15.20;6.85;;;;;;;6.34;98.90;100287.89;3536904;82;98599;-84
2022/12/28 14:36:11;;;;;;;17.07;7.03;;;;;;;6.33;99.04;100282.20;3578182;81;26722;-85
2022/12/28 14:41:32;;;;;;;17.97;6.93;;;;;;;6.34;99.01;100298.23;3563549;80;98593;-90
2022/12/28 14:46:36;;;;;;;14.90;6.70;;;;;;;6.35;99.02;100290.84;3589580;80;25892;-88
2022/12/28 14:51:39;;;;;;;15.17;7.20;;;;;;;6.38;98.92;100293.66;3547248;81;98681;-88
2022/12/28 14:56:40;;;;;;;13.80;5.50;;;;;;;6.40;98.78;100287.28;3564831;81;25894;-88
2022/12/28 15:01:45;;;;;;;13.40;5.50;;;;;;;6.43;98.73;100286.56;3556070;81;98968;-89
2022/12/28 15:06:53;;;;;;;14.27;5.67;;;;;;;6.48;98.60;100293.14;3564136;81;26795;-84
2022/12/28 15:12:20;;;;;;;12.23;5.37;;;;;;;6.48;98.49;100276.73;3543903;81;98318;-86
2022/12/28 15:17:21;;;;;;;12.98;5.10;;;;;;;6.50;98.74;100279.12;3564639;81;25891;-83
2022/12/28 15:22:22;;;;;;;14.80;5.80;;;;;;;6.52;98.53;100291.86;3553695;81;98552;-83
2022/12/28 15:27:23;;;;;;;14.53;6.37;;;;;;;6.55;98.43;100292.53;3570175;81;33092;-85
2022/12/28 15:32:24;;;;;;;16.40;6.40;;;;;;;6.55;98.99;100281.00;3568290;81;98899;-85
2022/12/28 15:37:26;;;;;;;14.40;6.53;;;;;;;6.55;99.07;100285.70;3565948;81;31648;-93
2022/12/28 15:42:27;;;;;;;17.00;6.43;;;;;;;6.55;99.32;100283.73;3558356;81;98383;-85
2022/12/28 15:47:28;;;;;;;14.80;7.35;;;;;;;6.55;99.47;100287.06;3494864;83;32410;-86
2022/12/28 15:52:30;;;;;;;15.80;6.23;;;;;;;6.55;99.80;100288.42;3529250;81;98306;-91
2022/12/28 15:57:31;;;;;;;14.43;5.60;;;;;;;6.55;100.00;100287.06;3541472;82;31754;-90
2022/12/28 16:02:32;;;;;;;15.67;5.77;;;;;;;6.57;100.00;100290.22;3530627;81;98958;-83
2022/12/28 16:07:33;;;;;;;15.53;7.07;;;;;;;6.57;100.00;100291.59;3538145;83;31683;-84
2022/12/28 16:12:34;;;;;;;13.30;5.93;;;;;;;6.56;100.00;100280.44;3530283;82;98832;-85
2022/12/28 16:17:35;;;;;;;17.57;7.73;;;;;;;6.56;100.00;100292.18;3539991;82;31662;-83
2022/12/28 16:22:36;;;;;;;17.27;7.83;;;;;;;6.54;100.00;100277.28;3532887;81;98772;-82
2022/12/28 16:27:37;;;;;;;16.70;7.17;;;;;;;6.53;100.00;100287.41;3541170;82;30792;-88
2022/12/28 16:32:37;;;;;;;18.40;8.40;;;;;;;6.51;100.00;100288.91;3530517;82;99047;-85
2022/12/28 16:37:38;;;;;;;21.40;9.07;;;;;;;6.48;100.00;100295.06;3537383;82;34909;-81
2022/12/28 16:42:44;;;;;;;16.50;7.83;;;;;;;6.45;100.00;100285.66;3539141;81;99178;-85
2022/12/28 16:47:42;;;;;;;16.57;7.67;;;;;;;6.44;100.00;100283.27;3543204;81;26643;-83
2022/12/28 16:52:43;;;;;;;18.77;7.83;;;;;;;6.44;100.00;100288.73;3543974;81;98746;-91
2022/12/28 16:57:44;;;;;;;17.17;7.90;;;;;;;6.44;100.00;100284.63;3573105;81;34977;-82
2022/12/28 17:02:45;;;;;;;19.20;7.60;;;;;;;6.43;100.00;100281.69;3536118;82;98377;-86
2022/12/28 17:07:45;;;;;;;14.20;7.60;;;;;;;6.42;100.00;100281.44;3546349;82;34891;-84
2022/12/28 17:12:46;;;;;;;17.70;7.30;;;;;;;6.41;100.00;100278.49;3541239;82;98521;-81
2022/12/28 17:17:47;;;;;;;18.37;8.10;;;;;;;6.41;100.00;100278.49;3503551;83;35621;-86
2022/12/28 17:22:48;;;;;;;16.80;8.03;;;;;;;6.41;100.00;100275.20;3537389;82;98913;-86
2022/12/28 17:27:49;;;;;;;16.93;8.23;;;;;;;6.40;100.00;100271.44;3576559;81;36209;-83
2022/12/28 17:32:55;;;;;;;24.63;9.23;;;;;;;6.39;100.00;100270.64;3569056;80;98679;-84
2022/12/28 17:37:57;;;;;;;18.95;9.05;;;;;;;6.39;100.00;100275.33;3573120;81;34448;-83
2022/12/28 17:42:57;;;;;;;16.57;8.57;;;;;;;6.38;100.00;100274.52;3546846;81;99293;-83
2022/12/28 17:47:58;;;;;;;19.67;8.17;;;;;;;6.34;100.00;100265.44;3575173;81;26580;-82
2022/12/28 17:52:59;;;;;;;20.27;8.37;;;;;;;6.28;100.00;100272.31;3556758;81;98531;-82
2022/12/28 17:58:00;;;;;;;16.73;7.83;;;;;;;6.15;100.00;100269.45;3568322;81;32457;-85
2022/12/28 18:03:00;;;;;;;20.83;7.90;;;;;;;6.15;100.00;100269.45;3557401;81;98492;-84
2022/12/28 18:08:01;;;;;;;23.43;10.40;;;;;;;6.11;100.00;100271.88;3565329;81;32658;-83
2022/12/28 18:13:04;;;;;;;18.35;8.25;;;;;;;6.08;100.00;100278.03;3559754;81;98941;-83
2022/12/28 18:18:05;;;;;;;20.07;8.73;;;;;;;6.07;100.00;100273.16;3560335;82;28670;-83
2022/12/28 18:23:06;;;;;;;19.97;8.40;;;;;;;6.07;100.00;100266.88;3554578;81;98870;-83
2022/12/28 18:28:07;;;;;;;24.10;8.87;;;;;;;6.06;100.00;100265.30;3566906;81;25918;-84
2022/12/28 18:33:08;;;;;;;18.97;8.90;;;;;;;6.05;100.00;100265.86;3554980;81;98983;-83
2022/12/28 18:38:09;;;;;;;26.23;9.40;;;;;;;6.04;100.00;100264.28;3563170;81;25982;-85
2022/12/28 18:43:10;;;;;;;19.13;9.73;;;;;;;6.04;100.00;100259.38;3560566;81;98576;-84
2022/12/28 18:48:11;;;;;;;19.67;9.03;;;;;;;6.03;100.00;100254.50;3569459;81;25703;-86
2022/12/28 18:53:11;;;;;;;17.43;8.77;;;;;;;6.04;100.00;100254.72;3569343;81;98616;-86
2022/12/28 18:58:12;;;;;;;17.27;9.13;;;;;;;6.04;100.00;100245.72;3579844;81;25901;-82
2022/12/28 19:03:13;;;;;;;20.15;10.20;;;;;;;6.03;100.00;100246.87;3569404;80;98752;-89
2022/12/28 19:08:14;;;;;;;26.23;13.40;;;;;;;6.01;100.00;100243.11;3506078;82;33909;-84
2022/12/28 19:13:15;;;;;;;17.57;8.83;;;;;;;5.99;99.81;100251.44;3533978;82;98912;-82
2022/12/28 19:18:16;;;;;;;21.50;9.93;;;;;;;5.98;99.95;100240.30;3574984;81;33726;-82
2022/12/28 22:35:46;;;;;;;18.77;8.05;;;;;;;6.90;100.00;100105.42;3503226;81;57133;-79
2022/12/28 22:40:56;;;;;;;15.90;6.87;;;;;;;6.83;100.00;100112.09;3502665;83;33368;-81
2022/12/28 22:46:07;;;;;;;16.23;7.10;;;;;;;6.78;100.00;100089.16;3443328;82;98505;-82
2022/12/28 23:11:50;;;;;;;18.20;8.03;;;;;;;6.57;100.00;100061.37;3446623;81;98800;-93
2022/12/28 23:16:51;;;;;;;16.70;6.95;;;;;;;6.55;100.00;100046.47;3441558;84;26011;-87
2022/12/28 23:27:19;;;;;;;17.37;7.45;;;;;;;6.54;100.00;100013.45;3463094;84;26108;-86
2022/12/28 23:32:20;;;;;;;15.18;6.08;;;;;;;6.54;100.00;100005.26;3456055;83;98523;-83
2022/12/28 23:37:21;;;;;;;16.23;6.23;;;;;;;6.54;100.00;99988.27;3491766;83;33140;-84
2022/12/28 23:42:22;;;;;;;12.68;6.28;;;;;;;6.56;100.00;99985.17;3486886;83;98670;-84
2022/12/28 23:47:23;;;;;;;15.87;7.07;;;;;;;6.58;100.00;99992.42;3491342;83;33490;-85
2022/12/28 23:52:24;;;;;;;13.20;6.30;;;;;;;6.57;100.00;99994.95;3469719;83;98941;-84
2022/12/28 23:57:25;;;;;;;15.50;6.83;;;;;;;6.57;100.00;99999.05;3441056;84;33660;-85
